createdAt,value
2022-10-30T00:00:41.062Z,12.18
2022-10-30T00:03:12.656Z,11.70
2022-10-30T00:05:44.203Z,11.93
2022-10-30T00:08:13.370Z,12.63
2022-10-30T00:10:41.099Z,12.32
2022-10-30T00:13:08.391Z,11.82
2022-10-30T00:15:35.716Z,11.35
2022-10-30T00:18:02.872Z,11.77
2022-10-30T00:20:30.176Z,11.52
2022-10-30T00:22:57.351Z,11.52
2022-10-30T00:25:24.549Z,10.57
2022-10-30T00:27:51.310Z,11.32
2022-10-30T00:30:18.926Z,10.02
2022-10-30T00:32:45.748Z,10.25
2022-10-30T00:35:12.731Z,9.70
2022-10-30T00:37:39.753Z,9.55
2022-10-30T00:40:07.539Z,10.23
2022-10-30T00:42:34.596Z,10.13
2022-10-30T00:45:01.398Z,10.43
2022-10-30T00:47:38.070Z,10.27
2022-10-30T00:50:16.005Z,11.25
2022-10-30T00:52:54.998Z,10.38
2022-10-30T00:55:45.795Z,9.73
2022-10-30T00:58:17.127Z,9.52
2022-10-30T01:00:48.790Z,9.60
2022-10-30T01:03:16.301Z,10.60
2022-10-30T01:05:48.784Z,9.85
2022-10-30T01:08:15.848Z,9.40
2022-10-30T01:10:43.417Z,9.27
2022-10-30T01:13:11.122Z,9.25
2022-10-30T01:15:50.283Z,10.13
2022-10-30T01:18:22.943Z,10.18
2022-10-30T01:21:01.217Z,8.73
2022-10-30T01:23:43.353Z,9.52
2022-10-30T01:26:10.173Z,9.52
2022-10-30T01:29:12.094Z,9.63
2022-10-30T01:32:09.661Z,9.55
2022-10-30T01:34:44.264Z,9.57
2022-10-30T01:37:34.660Z,9.50
2022-10-30T01:40:21.294Z,8.68
2022-10-30T01:42:57.108Z,8.32
2022-10-30T01:45:58.305Z,9.95
2022-10-30T01:48:33.894Z,9.15
2022-10-30T01:51:14.246Z,8.80
2022-10-30T01:53:59.043Z,8.95
2022-10-30T01:56:43.949Z,9.98
2022-10-30T01:59:35.294Z,8.80
2022-10-30T02:02:02.261Z,8.95
2022-10-30T02:04:29.898Z,8.65
2022-10-30T02:06:57.034Z,8.98
2022-10-30T02:09:24.266Z,8.13
2022-10-30T02:11:53.673Z,8.73
2022-10-30T02:14:31.429Z,8.85
2022-10-30T02:17:00.988Z,8.88
2022-10-30T02:19:27.772Z,8.95
2022-10-30T02:21:54.727Z,9.05
2022-10-30T02:24:21.627Z,9.48
2022-10-30T02:26:48.410Z,8.52
2022-10-30T02:29:15.302Z,8.27
2022-10-30T02:31:42.078Z,9.48
2022-10-30T02:34:08.858Z,9.18
2022-10-30T02:36:35.700Z,9.20
2022-10-30T02:39:02.527Z,9.90
2022-10-30T02:41:29.671Z,9.77
2022-10-30T02:43:56.501Z,8.88
2022-10-30T02:46:23.543Z,8.98
2022-10-30T02:48:50.491Z,9.75
2022-10-30T02:51:17.535Z,8.70
2022-10-30T02:53:44.683Z,9.25
2022-10-30T02:56:13.539Z,9.68
2022-10-30T02:58:41.058Z,9.07
2022-10-30T03:01:14.383Z,11.50
2022-10-30T03:03:42.177Z,9.02
2022-10-30T03:06:10.547Z,9.50
2022-10-30T03:08:37.939Z,9.52
2022-10-30T03:11:09.983Z,9.93
2022-10-30T03:13:38.176Z,8.00
2022-10-30T03:16:11.035Z,9.35
2022-10-30T03:18:37.971Z,9.55
2022-10-30T03:21:06.585Z,10.25
2022-10-30T03:23:33.847Z,9.10
2022-10-30T03:26:01.269Z,8.85
2022-10-30T03:28:30.653Z,9.10
2022-10-30T03:31:05.903Z,9.70
2022-10-30T03:33:33.862Z,8.85
2022-10-30T03:36:00.903Z,9.50
2022-10-30T03:38:27.857Z,9.35
2022-10-30T03:40:54.627Z,8.65
2022-10-30T03:43:22.011Z,8.75
2022-10-30T03:45:50.613Z,8.70
2022-10-30T03:48:18.770Z,8.93
2022-10-30T03:50:46.329Z,8.95
2022-10-30T03:53:14.095Z,9.20
2022-10-30T03:55:41.271Z,9.07
2022-10-30T03:58:08.192Z,9.70
2022-10-30T04:00:36.032Z,8.57
2022-10-30T04:03:06.630Z,9.18
2022-10-30T04:05:34.083Z,9.00
2022-10-30T04:08:03.672Z,8.27
2022-10-30T04:10:30.578Z,9.18
2022-10-30T04:13:06.305Z,8.65
2022-10-30T04:15:33.666Z,8.75
2022-10-30T04:18:01.194Z,8.80
2022-10-30T04:20:29.220Z,9.05
2022-10-30T04:22:57.881Z,9.38
2022-10-30T04:25:25.455Z,8.73
2022-10-30T04:27:53.148Z,9.95
2022-10-30T04:30:25.201Z,9.75
2022-10-30T04:32:56.813Z,9.35
2022-10-30T04:35:26.455Z,9.30
2022-10-30T04:38:08.490Z,8.82
2022-10-30T04:43:03.846Z,8.23
2022-10-30T04:45:30.996Z,9.07
2022-10-30T04:48:11.071Z,8.55
2022-10-30T04:50:38.935Z,8.68
2022-10-30T04:53:14.377Z,9.10
2022-10-30T04:55:41.646Z,9.00
2022-10-30T04:58:09.966Z,7.90
2022-10-30T05:00:36.796Z,8.65
2022-10-30T05:03:04.035Z,8.40
2022-10-30T05:05:31.887Z,8.00
2022-10-30T05:07:59.101Z,8.13
2022-10-30T05:10:26.341Z,8.43
2022-10-30T05:12:54.239Z,8.05
2022-10-30T05:15:21.474Z,8.25
2022-10-30T05:17:53.034Z,8.27
2022-10-30T05:20:20.092Z,9.43
2022-10-30T05:22:53.537Z,7.93
2022-10-30T05:25:20.384Z,8.05
2022-10-30T05:27:47.269Z,8.60
2022-10-30T05:30:14.090Z,8.82
2022-10-30T05:32:40.865Z,7.78
2022-10-30T05:35:08.047Z,8.27
2022-10-30T05:37:34.942Z,8.13
2022-10-30T05:40:02.098Z,7.55
2022-10-30T05:42:28.909Z,9.23
2022-10-30T05:45:00.878Z,7.88
2022-10-30T05:47:28.037Z,7.72
2022-10-30T05:49:54.951Z,8.63
2022-10-30T05:52:21.799Z,8.73
2022-10-30T05:54:48.555Z,8.23
2022-10-30T05:57:15.339Z,8.07
2022-10-30T05:59:42.319Z,8.40
2022-10-30T06:02:09.212Z,8.82
2022-10-30T06:04:36.041Z,8.52
2022-10-30T06:07:02.786Z,9.20
2022-10-30T06:09:29.678Z,7.95
2022-10-30T06:11:56.482Z,7.90
2022-10-30T06:14:23.296Z,7.38
2022-10-30T06:16:50.548Z,7.47
2022-10-30T06:19:18.864Z,7.68
2022-10-30T06:21:46.657Z,7.75
2022-10-30T06:24:14.141Z,8.07
2022-10-30T06:26:41.062Z,6.70
2022-10-30T06:29:07.976Z,7.65
2022-10-30T06:31:34.819Z,7.57
2022-10-30T06:34:01.660Z,7.20
2022-10-30T06:36:28.502Z,6.97
2022-10-30T06:38:55.246Z,7.47
2022-10-30T06:41:26.156Z,6.90
2022-10-30T06:43:57.231Z,7.38
2022-10-30T06:46:27.052Z,7.55
2022-10-30T06:48:57.520Z,7.03
2022-10-30T06:51:24.511Z,7.30
2022-10-30T06:53:51.262Z,8.70
2022-10-30T06:56:18.086Z,7.15
2022-10-30T06:58:44.993Z,7.82
2022-10-30T07:01:11.875Z,8.25
2022-10-30T07:03:38.626Z,8.45
2022-10-30T07:06:05.781Z,8.00
2022-10-30T07:08:32.756Z,8.48
2022-10-30T07:10:59.593Z,9.82
2022-10-30T07:13:26.346Z,10.27
2022-10-30T07:15:53.192Z,10.18
2022-10-30T07:18:20.086Z,10.38
2022-10-30T07:20:46.842Z,10.57
2022-10-30T07:23:13.728Z,9.88
2022-10-30T07:25:40.503Z,10.68
2022-10-30T07:28:07.308Z,11.70
2022-10-30T07:30:34.168Z,15.40
2022-10-30T07:33:03.706Z,14.75
2022-10-30T07:35:31.700Z,13.05
2022-10-30T07:38:11.550Z,12.65
2022-10-30T07:40:38.487Z,16.17
2022-10-30T07:43:05.865Z,14.15
2022-10-30T07:45:33.759Z,14.90
2022-10-30T07:48:00.866Z,14.85
2022-10-30T07:50:28.219Z,13.93
2022-10-30T07:52:55.013Z,15.75
2022-10-30T07:55:21.777Z,14.35
2022-10-30T07:57:48.577Z,14.35
2022-10-30T08:00:18.367Z,15.30
2022-10-30T08:02:49.947Z,14.45
2022-10-30T08:05:17.065Z,16.35
2022-10-30T08:07:47.088Z,15.13
2022-10-30T08:10:14.303Z,15.93
2022-10-30T08:12:43.985Z,16.75
2022-10-30T08:15:11.711Z,17.60
2022-10-30T08:17:43.774Z,16.50
2022-10-30T08:20:12.046Z,14.65
2022-10-30T08:22:50.263Z,15.98
2022-10-30T08:25:18.642Z,14.05
2022-10-30T08:27:58.976Z,13.00
2022-10-30T08:30:29.286Z,12.52
2022-10-30T08:33:00.711Z,12.10
2022-10-30T08:35:28.134Z,10.32
2022-10-30T08:37:56.755Z,11.57
2022-10-30T08:40:27.248Z,10.90
2022-10-30T08:42:55.669Z,9.48
2022-10-30T08:45:28.120Z,10.52
2022-10-30T08:48:00.817Z,9.90
2022-10-30T08:50:28.031Z,10.50
2022-10-30T08:52:55.008Z,10.77
2022-10-30T08:55:22.049Z,10.80
2022-10-30T08:57:49.409Z,11.85
2022-10-30T09:00:16.392Z,10.55
2022-10-30T09:02:43.414Z,10.82
2022-10-30T09:05:10.423Z,9.98
2022-10-30T09:07:37.242Z,9.82
2022-10-30T09:10:04.482Z,8.95
2022-10-30T09:12:31.326Z,8.75
2022-10-30T09:14:58.287Z,8.77
2022-10-30T09:17:25.279Z,8.90
2022-10-30T09:19:52.203Z,7.45
2022-10-30T09:22:19.061Z,7.18
2022-10-30T09:24:48.047Z,6.65
2022-10-30T09:27:14.910Z,6.68
2022-10-30T09:29:41.736Z,6.15
2022-10-30T09:32:10.560Z,6.03
2022-10-30T09:34:38.500Z,5.97
2022-10-30T09:37:05.946Z,6.00
2022-10-30T09:39:32.857Z,5.78
2022-10-30T09:42:21.423Z,6.28
2022-10-30T09:48:03.963Z,5.07
2022-10-30T09:50:43.298Z,5.57
2022-10-30T09:53:16.556Z,5.82
2022-10-30T09:56:13.719Z,5.60
2022-10-30T09:59:13.948Z,5.25
2022-10-30T10:02:15.798Z,5.85
2022-10-30T10:04:46.551Z,5.55
2022-10-30T10:07:19.861Z,5.70
2022-10-30T10:09:50.229Z,5.18
2022-10-30T10:12:39.906Z,5.32
2022-10-30T10:17:48.729Z,9.38
2022-10-30T10:20:37.666Z,6.50
2022-10-30T10:23:33.871Z,5.50
2022-10-30T10:26:07.404Z,5.35
2022-10-30T10:29:25.119Z,5.43
2022-10-30T10:32:25.029Z,5.78
2022-10-30T10:34:57.761Z,9.75
2022-10-30T10:37:42.239Z,6.20
2022-10-30T10:40:41.072Z,6.05
2022-10-30T10:43:21.093Z,6.85
2022-10-30T10:46:29.697Z,5.95
2022-10-30T10:49:14.947Z,6.00
2022-10-30T10:51:47.629Z,5.38
2022-10-30T10:54:19.654Z,4.95
2022-10-30T10:56:49.850Z,5.35
2022-10-30T10:59:19.313Z,5.65
2022-10-30T11:02:00.333Z,5.95
2022-10-30T11:04:46.765Z,5.60
2022-10-30T11:07:24.599Z,5.40
2022-10-30T11:09:59.479Z,5.63
2022-10-30T11:12:33.912Z,5.70
2022-10-30T11:15:34.701Z,5.15
2022-10-30T11:18:07.524Z,5.68
2022-10-30T11:20:59.586Z,5.88
2022-10-30T11:26:02.420Z,5.15
2022-10-30T11:28:49.445Z,5.45
2022-10-30T11:31:25.104Z,5.47
2022-10-30T11:33:52.068Z,5.10
2022-10-30T11:36:23.342Z,7.22
2022-10-30T11:38:50.887Z,6.13
2022-10-30T11:41:19.520Z,6.93
2022-10-30T11:43:49.030Z,5.28
2022-10-30T11:46:23.278Z,5.80
2022-10-30T11:48:55.000Z,5.90
2022-10-30T11:51:38.458Z,5.57
2022-10-30T11:54:07.001Z,5.28
2022-10-30T11:56:35.677Z,4.85
2022-10-30T11:59:04.625Z,5.03
2022-10-30T12:01:39.310Z,5.30
2022-10-30T12:04:23.962Z,5.50
2022-10-30T12:07:24.358Z,5.13
2022-10-30T12:09:51.417Z,5.15
2022-10-30T12:12:23.084Z,5.38
2022-10-30T12:17:18.627Z,4.57
2022-10-30T12:19:54.860Z,4.85
2022-10-30T12:22:31.476Z,5.07
2022-10-30T12:25:05.019Z,4.90
2022-10-30T12:27:36.905Z,4.80
2022-10-30T12:30:16.776Z,6.28
2022-10-30T12:32:56.014Z,6.32
2022-10-30T12:35:59.275Z,4.95
2022-10-30T12:38:28.522Z,5.38
2022-10-30T12:41:39.830Z,5.05
2022-10-30T12:44:09.602Z,4.03
2022-10-30T12:46:40.491Z,4.30
2022-10-30T12:49:31.613Z,4.20
2022-10-30T12:52:07.659Z,4.78
2022-10-30T12:54:53.350Z,5.05
2022-10-30T12:57:31.056Z,4.38
2022-10-30T13:00:01.721Z,4.90
2022-10-30T13:02:50.866Z,4.85
2022-10-30T13:05:45.694Z,5.00
2022-10-30T13:08:43.209Z,5.47
2022-10-30T13:11:25.727Z,5.00
2022-10-30T13:13:54.566Z,4.20
2022-10-30T13:16:27.398Z,4.45
2022-10-30T13:18:57.859Z,4.70
2022-10-30T13:21:35.567Z,5.25
2022-10-30T13:24:15.067Z,4.60
2022-10-30T13:26:55.947Z,4.32
2022-10-30T13:29:54.119Z,4.47
2022-10-30T13:32:23.572Z,5.22
2022-10-30T13:35:03.773Z,4.57
2022-10-30T13:37:46.439Z,5.18
2022-10-30T13:40:31.963Z,5.30
2022-10-30T13:43:25.387Z,4.68
2022-10-30T13:45:54.866Z,4.53
2022-10-30T13:48:50.240Z,12.85
2022-10-30T13:51:16.922Z,8.07
2022-10-30T13:53:48.398Z,9.27
2022-10-30T13:56:21.976Z,6.75
2022-10-30T13:59:13.742Z,6.82
2022-10-30T14:01:59.145Z,5.47
2022-10-30T14:04:47.802Z,5.68
2022-10-30T14:07:33.296Z,4.97
2022-10-30T14:10:10.666Z,5.20
2022-10-30T14:12:53.811Z,5.43
2022-10-30T14:15:34.532Z,4.53
2022-10-30T14:18:13.722Z,4.80
2022-10-30T14:20:51.122Z,4.50
2022-10-30T14:23:22.895Z,4.80
2022-10-30T14:26:04.711Z,5.32
2022-10-30T14:31:16.844Z,4.88
2022-10-30T14:33:52.387Z,4.57
2022-10-30T14:36:25.119Z,4.97
2022-10-30T14:38:59.324Z,4.88
2022-10-30T14:41:36.099Z,5.35
2022-10-30T14:44:11.420Z,4.75
2022-10-30T14:46:43.851Z,5.07
2022-10-30T14:49:28.845Z,4.55
2022-10-30T14:52:08.516Z,5.05
2022-10-30T14:54:50.708Z,6.10
2022-10-30T14:57:22.998Z,4.93
2022-10-30T15:00:09.959Z,5.47
2022-10-30T15:03:07.777Z,5.43
2022-10-30T15:05:45.303Z,5.60
2022-10-30T15:08:42.434Z,6.25
2022-10-30T15:11:28.016Z,5.75
2022-10-30T15:14:00.039Z,5.00
2022-10-30T15:16:29.078Z,5.95
2022-10-30T15:19:04.756Z,6.28
2022-10-30T15:21:35.601Z,6.25
2022-10-30T15:28:03.939Z,6.20
2022-10-30T15:30:30.822Z,6.57
2022-10-30T15:32:58.056Z,6.45
2022-10-30T15:35:27.484Z,5.70
2022-10-30T15:37:59.049Z,6.45
2022-10-30T15:40:26.155Z,6.15
2022-10-30T15:42:54.046Z,6.28
2022-10-30T15:45:42.233Z,6.80
2022-10-30T15:48:18.227Z,6.07
2022-10-30T15:50:52.742Z,6.55
2022-10-30T15:53:24.918Z,6.28
2022-10-30T15:55:51.902Z,6.60
2022-10-30T15:58:22.828Z,6.95
2022-10-30T16:01:01.205Z,6.27
2022-10-30T16:03:29.039Z,7.90
2022-10-30T16:06:17.305Z,7.22
2022-10-30T16:13:53.956Z,11.77
2022-10-30T16:16:31.609Z,11.82
2022-10-30T16:19:02.604Z,13.43
2022-10-30T16:21:31.216Z,14.25
2022-10-30T16:24:04.441Z,11.57
2022-10-30T16:26:36.689Z,10.00
2022-10-30T16:29:18.608Z,9.05
2022-10-30T16:34:23.501Z,7.43
2022-10-30T16:36:51.270Z,6.63
2022-10-30T16:39:21.624Z,7.97
2022-10-30T16:41:49.302Z,7.63
2022-10-30T16:44:30.002Z,8.15
2022-10-30T16:47:18.194Z,7.55
2022-10-30T16:49:52.227Z,7.53
2022-10-30T16:52:24.397Z,7.90
2022-10-30T16:55:02.403Z,7.25
2022-10-30T16:57:32.642Z,6.88
2022-10-30T17:00:04.753Z,8.05
2022-10-30T17:02:35.973Z,8.20
2022-10-30T17:05:03.604Z,8.68
2022-10-30T17:07:30.788Z,7.40
2022-10-30T17:09:58.775Z,7.65
2022-10-30T17:12:33.005Z,8.73
2022-10-30T17:15:11.817Z,8.10
2022-10-30T17:17:43.340Z,8.40
2022-10-30T17:20:19.392Z,7.93
2022-10-30T17:22:47.970Z,8.43
2022-10-30T17:25:45.179Z,8.02
2022-10-30T17:28:37.047Z,8.45
2022-10-30T17:31:26.028Z,7.95
2022-10-30T17:34:18.801Z,7.95
2022-10-30T17:36:49.424Z,7.90
2022-10-30T17:39:16.807Z,8.20
2022-10-30T17:41:44.199Z,7.35
2022-10-30T17:44:23.173Z,7.45
2022-10-30T17:46:52.337Z,8.20
2022-10-30T17:49:30.082Z,8.32
2022-10-30T17:51:57.387Z,7.88
2022-10-30T17:54:26.849Z,8.15
2022-10-30T17:56:54.318Z,7.70
2022-10-30T17:59:21.693Z,7.57
2022-10-30T18:01:49.709Z,8.05
2022-10-30T18:04:21.530Z,7.85
2022-10-30T18:09:16.677Z,9.45
2022-10-30T18:14:12.733Z,8.02
2022-10-30T18:16:39.656Z,8.38
2022-10-30T18:19:11.124Z,8.77
2022-10-30T18:21:38.278Z,8.98
2022-10-30T18:24:15.676Z,9.05
2022-10-30T18:26:42.734Z,8.57
2022-10-30T18:29:10.716Z,8.30
2022-10-30T18:31:38.575Z,9.05
2022-10-30T18:34:11.619Z,8.32
2022-10-30T18:36:38.455Z,9.07
2022-10-30T18:39:05.290Z,9.02
2022-10-30T18:41:35.682Z,8.45
2022-10-30T18:44:03.402Z,8.57
2022-10-30T18:46:31.834Z,9.25
2022-10-30T18:48:59.013Z,8.82
2022-10-30T18:51:27.333Z,9.10
2022-10-30T18:53:57.025Z,8.45
2022-10-30T18:56:29.871Z,8.35
2022-10-30T18:59:02.059Z,8.35
2022-10-30T19:01:32.318Z,8.27
2022-10-30T19:04:03.858Z,9.38
2022-10-30T19:06:32.902Z,9.70
2022-10-30T19:08:59.808Z,9.85
2022-10-30T19:11:28.251Z,9.10
2022-10-30T19:13:57.132Z,9.60
2022-10-30T19:16:25.553Z,9.75
2022-10-30T19:18:52.571Z,9.23
2022-10-30T19:21:28.112Z,9.50
2022-10-30T19:23:56.260Z,9.05
2022-10-30T19:26:23.235Z,9.60
2022-10-30T19:28:50.024Z,9.82
2022-10-30T19:31:18.962Z,9.63
2022-10-30T19:33:50.012Z,9.73
2022-10-30T19:36:25.846Z,9.93
2022-10-30T19:38:52.844Z,9.20
2022-10-30T19:41:19.773Z,10.25
2022-10-30T19:43:46.623Z,9.20
2022-10-30T19:46:14.738Z,9.32
2022-10-30T19:48:56.756Z,10.07
2022-10-30T19:51:24.943Z,10.57
2022-10-30T19:53:53.830Z,9.75
2022-10-30T19:56:21.322Z,10.98
2022-10-30T19:58:48.342Z,9.45
2022-10-30T20:01:15.642Z,9.75
2022-10-30T20:03:42.739Z,9.35
2022-10-30T20:06:12.624Z,9.73
2022-10-30T20:08:39.851Z,9.40
2022-10-30T20:11:06.857Z,9.18
2022-10-30T20:13:34.017Z,8.48
2022-10-30T20:16:04.955Z,9.20
2022-10-30T20:18:33.707Z,9.13
2022-10-30T20:21:04.053Z,9.60
2022-10-30T20:23:31.091Z,9.80
2022-10-30T20:26:21.200Z,9.60
2022-10-30T20:28:47.961Z,9.43
2022-10-30T20:31:14.745Z,8.90
2022-10-30T20:33:41.593Z,9.98
2022-10-30T20:36:10.484Z,9.07
2022-10-30T20:38:37.257Z,9.13
2022-10-30T20:41:05.235Z,10.13
2022-10-30T20:43:36.116Z,10.15
2022-10-30T20:46:04.977Z,9.53
2022-10-30T20:48:32.130Z,9.77
2022-10-30T20:51:00.565Z,9.52
2022-10-30T20:53:28.136Z,9.23
2022-10-30T20:55:55.167Z,9.63
2022-10-30T20:58:22.055Z,10.63
2022-10-30T21:00:49.461Z,10.25
2022-10-30T21:03:16.444Z,10.30
2022-10-30T21:05:45.952Z,10.32
2022-10-30T21:08:14.160Z,10.45
2022-10-30T21:10:41.954Z,9.90
2022-10-30T21:13:10.105Z,11.07
2022-10-30T21:15:42.617Z,10.05
2022-10-30T21:18:11.014Z,9.82
2022-10-30T21:20:38.391Z,10.43
2022-10-30T21:23:06.136Z,9.43
2022-10-30T21:25:33.059Z,9.18
2022-10-30T21:28:00.331Z,9.43
2022-10-30T21:30:27.262Z,9.52
2022-10-30T21:32:54.029Z,9.15
2022-10-30T21:35:21.065Z,9.98
2022-10-30T21:37:47.947Z,10.60
2022-10-30T21:40:14.836Z,9.75
2022-10-30T21:42:41.583Z,10.27
2022-10-30T21:45:09.279Z,9.85
2022-10-30T21:47:36.211Z,9.52
2022-10-30T21:50:06.159Z,9.70
2022-10-30T21:52:33.782Z,9.68
2022-10-30T21:55:00.520Z,9.68
2022-10-30T21:57:29.000Z,9.73
2022-10-30T21:59:58.698Z,9.23
2022-10-30T22:02:28.516Z,9.63
2022-10-30T22:04:55.268Z,9.00
2022-10-30T22:07:22.138Z,9.43
2022-10-30T22:09:48.899Z,8.70
2022-10-30T22:12:15.634Z,9.38
2022-10-30T22:14:42.415Z,9.75
2022-10-30T22:17:09.295Z,10.35
2022-10-30T22:19:36.113Z,10.70
2022-10-30T22:22:02.907Z,9.60
2022-10-30T22:24:29.694Z,9.65
2022-10-30T22:26:56.471Z,9.40
2022-10-30T22:29:23.277Z,9.40
2022-10-30T22:31:50.055Z,9.32
2022-10-30T22:34:16.818Z,9.52
2022-10-30T22:36:43.583Z,8.93
2022-10-30T22:39:14.392Z,8.90
2022-10-30T22:41:41.908Z,9.15
2022-10-30T22:44:12.521Z,9.38
2022-10-30T22:46:39.859Z,9.60
2022-10-30T22:49:07.225Z,10.00
2022-10-30T22:51:36.765Z,9.75
2022-10-30T22:54:05.848Z,10.30
2022-10-30T22:56:35.453Z,10.43
2022-10-30T22:59:07.676Z,10.13
2022-10-30T23:01:36.673Z,10.25
2022-10-30T23:04:05.413Z,10.50
2022-10-30T23:06:34.301Z,10.70
2022-10-30T23:09:04.599Z,10.43
2022-10-30T23:11:31.420Z,9.48
2022-10-30T23:13:58.266Z,10.68
2022-10-30T23:16:26.293Z,10.07
2022-10-30T23:18:56.262Z,9.73
2022-10-30T23:21:24.739Z,10.23
2022-10-30T23:23:52.267Z,9.63
2022-10-30T23:26:21.645Z,9.27
2022-10-30T23:28:50.168Z,9.40
2022-10-30T23:31:26.368Z,9.25
2022-10-30T23:33:55.990Z,9.25
2022-10-30T23:36:23.177Z,9.80
2022-10-30T23:38:58.076Z,9.57
2022-10-30T23:41:28.583Z,9.55
2022-10-30T23:43:57.472Z,9.35
2022-10-30T23:46:24.813Z,8.85
2022-10-30T23:48:51.983Z,8.90
2022-10-30T23:51:19.813Z,8.95
2022-10-30T23:53:46.784Z,9.05
2022-10-30T23:56:14.369Z,9.95
2022-10-30T23:58:49.521Z,10.05
